Time;durP1;ratioP1;P1;durP2;ratioP2;P2;SDS_P1;SDS_P2;PMS_P1;PMS_P2;Temp;Humidity;BMP_temperature;BMP_pressure;BME280_temperature;BME280_humidity;BME280_pressure;Samples;Min_cycle;Max_cycle;Signal;HPM_P1;HPM_P2
2023/09/10 00:00:13;;;;;;;29.15;28.13;;;21.70;99.90;;;;;;5031911;28;20274;-63
2023/09/10 00:02:40;;;;;;;37.92;36.50;;;21.60;99.90;;;;;;5031665;28;20197;-63
2023/09/10 00:05:08;;;;;;;30.83;29.70;;;21.70;99.90;;;;;;5032090;28;20217;-62
2023/09/10 00:07:36;;;;;;;29.88;28.77;;;21.70;99.90;;;;;;5032000;28;20207;-63
2023/09/10 00:10:03;;;;;;;27.88;26.88;;;21.70;99.90;;;;;;5031420;28;20212;-63
2023/09/10 00:12:29;;;;;;;28.35;27.35;;;21.60;99.90;;;;;;5031207;28;20223;-63
2023/09/10 00:14:56;;;;;;;35.25;33.95;;;21.60;99.90;;;;;;5031305;28;20292;-62
2023/09/10 00:17:23;;;;;;;34.47;33.25;;;21.60;99.90;;;;;;5031599;28;20201;-62
2023/09/10 00:19:50;;;;;;;37.67;36.35;;;21.60;99.90;;;;;;5031345;28;20311;-63
2023/09/10 00:22:17;;;;;;;30.05;28.95;;;21.60;99.90;;;;;;5031196;28;20534;-63
2023/09/10 00:24:45;;;;;;;36.72;35.42;;;21.70;99.90;;;;;;5031107;28;20203;-64
2023/09/10 00:27:13;;;;;;;34.00;32.80;;;21.70;99.90;;;;;;5021925;28;20200;-62
2023/09/10 00:29:40;;;;;;;29.35;28.30;;;21.70;99.90;;;;;;5022528;28;20201;-62
2023/09/10 00:32:07;;;;;;;28.77;27.77;;;21.60;99.90;;;;;;5022631;28;20241;-62
2023/09/10 00:34:34;;;;;;;28.55;27.52;;;21.50;99.90;;;;;;5025490;28;20200;-64
2023/09/10 00:37:01;;;;;;;32.65;31.45;;;21.50;99.90;;;;;;5023297;28;20231;-62
2023/09/10 00:39:28;;;;;;;29.23;28.20;;;21.50;99.90;;;;;;5022950;28;20312;-63
2023/09/10 00:41:56;;;;;;;24.90;24.00;;;21.50;99.90;;;;;;5025954;28;20220;-63
2023/09/10 00:44:23;;;;;;;31.08;29.98;;;21.50;99.90;;;;;;5023048;28;20200;-63
2023/09/10 00:46:51;;;;;;;27.42;26.42;;;21.50;99.90;;;;;;5031994;28;20200;-63
2023/09/10 00:49:18;;;;;;;25.55;24.65;;;21.60;99.90;;;;;;5029923;28;20672;-62
2023/09/10 00:51:47;;;;;;;29.55;28.48;;;21.50;99.90;;;;;;5027266;28;20599;-62
2023/09/10 00:54:16;;;;;;;32.13;30.98;;;21.60;99.90;;;;;;5023834;28;20638;-62
2023/09/10 00:56:43;;;;;;;32.80;31.63;;;21.50;99.90;;;;;;5023389;28;20227;-64
2023/09/10 00:59:11;;;;;;;28.02;27.02;;;21.40;99.90;;;;;;5021922;28;20285;-63
2023/09/10 01:01:38;;;;;;;24.88;23.98;;;21.40;99.90;;;;;;5024252;28;20217;-62
2023/09/10 01:04:06;;;;;;;22.77;21.98;;;21.50;99.90;;;;;;5021059;28;20300;-63
2023/09/10 01:06:33;;;;;;;23.92;23.05;;;21.40;99.90;;;;;;5027420;28;20228;-63
2023/09/10 01:09:01;;;;;;;26.27;25.35;;;21.40;99.90;;;;;;5025919;28;20236;-63
2023/09/10 01:11:38;;;;;;;29.38;28.35;;;21.40;99.90;;;;;;5027710;28;20228;-62
2023/09/10 01:14:12;;;;;;;28.45;27.45;;;21.40;99.90;;;;;;5024822;28;20211;-62
2023/09/10 01:16:48;;;;;;;24.15;23.25;;;21.40;99.90;;;;;;5027875;28;20215;-63
2023/09/10 01:19:41;;;;;;;27.55;26.52;;;21.40;99.90;;;;;;5026195;28;20204;-63
2023/09/10 01:22:14;;;;;;;23.80;22.90;;;21.30;99.90;;;;;;5025589;28;20653;-63
2023/09/10 01:24:48;;;;;;;29.08;28.00;;;21.30;99.90;;;;;;5028851;28;20196;-64
2023/09/10 01:27:15;;;;;;;27.48;26.48;;;21.30;99.90;;;;;;5027494;28;20195;-63
2023/09/10 01:29:43;;;;;;;27.05;26.10;;;21.20;99.90;;;;;;5027718;28;20719;-62
2023/09/10 01:32:16;;;;;;;25.55;24.63;;;21.20;99.90;;;;;;5026568;28;20312;-62
2023/09/10 01:34:49;;;;;;;30.08;28.98;;;21.20;99.90;;;;;;5029500;28;20204;-62
2023/09/10 01:37:25;;;;;;;33.90;32.65;;;21.20;99.90;;;;;;5027020;28;20212;-62
2023/09/10 01:39:56;;;;;;;29.15;28.15;;;21.20;99.90;;;;;;5026344;28;20210;-64
2023/09/10 01:42:24;;;;;;;30.23;29.13;;;21.20;99.90;;;;;;5026627;28;20207;-63
2023/09/10 01:44:52;;;;;;;25.10;24.20;;;21.20;99.90;;;;;;5029408;28;20219;-62
2023/09/10 01:47:19;;;;;;;30.45;29.35;;;21.20;99.90;;;;;;5043958;28;20231;-63
2023/09/10 01:49:46;;;;;;;22.90;22.10;;;21.10;99.90;;;;;;5041413;28;20243;-62
2023/09/10 01:52:13;;;;;;;25.40;24.50;;;21.10;99.90;;;;;;5033887;28;20586;-63
2023/09/10 01:54:40;;;;;;;31.65;30.55;;;21.10;99.90;;;;;;5035496;28;20224;-64
2023/09/10 01:57:09;;;;;;;29.88;28.80;;;21.10;99.90;;;;;;5032182;28;20291;-63
2023/09/10 01:59:35;;;;;;;28.83;27.83;;;21.10;99.90;;;;;;5030090;28;20205;-62
2023/09/10 02:02:02;;;;;;;26.20;25.30;;;21.10;99.90;;;;;;5026496;28;20698;-63
2023/09/10 02:04:29;;;;;;;27.23;26.23;;;21.10;99.90;;;;;;5025790;28;20239;-63
2023/09/10 02:06:56;;;;;;;27.35;26.35;;;21.10;99.90;;;;;;5029161;28;20215;-63
2023/09/10 02:09:23;;;;;;;31.83;30.70;;;21.00;99.90;;;;;;5026645;28;20201;-62
2023/09/10 02:11:49;;;;;;;27.40;26.40;;;21.00;99.90;;;;;;5028362;28;20234;-62
2023/09/10 02:14:18;;;;;;;33.35;32.15;;;21.00;99.90;;;;;;5026137;28;20209;-63
2023/09/10 02:16:44;;;;;;;31.48;30.38;;;21.00;99.90;;;;;;5026829;28;20288;-63
2023/09/10 02:19:11;;;;;;;31.15;30.05;;;21.00;99.90;;;;;;5025639;28;20205;-63
2023/09/10 02:21:38;;;;;;;35.50;34.22;;;20.90;99.90;;;;;;5027711;28;20298;-63
2023/09/10 02:24:05;;;;;;;37.30;35.90;;;20.90;99.90;;;;;;5027812;28;20197;-64
2023/09/10 02:26:32;;;;;;;29.60;28.55;;;20.80;99.90;;;;;;5027658;28;20201;-63
2023/09/10 02:28:59;;;;;;;32.80;31.60;;;20.80;99.90;;;;;;5036712;28;20215;-62
2023/09/10 02:31:27;;;;;;;28.13;27.13;;;20.80;99.90;;;;;;5041702;28;20235;-62
2023/09/10 02:34:00;;;;;;;32.65;31.48;;;20.80;99.90;;;;;;5027605;28;20210;-62
2023/09/10 02:36:26;;;;;;;35.25;33.95;;;20.80;99.90;;;;;;5047580;28;20268;-62
2023/09/10 02:38:53;;;;;;;37.42;36.05;;;20.80;99.90;;;;;;5033928;28;20674;-63
2023/09/10 02:41:20;;;;;;;35.83;34.53;;;20.80;99.90;;;;;;5033942;28;20657;-63
2023/09/10 02:43:47;;;;;;;24.98;24.08;;;20.70;99.90;;;;;;5043210;28;20296;-64
2023/09/10 02:46:14;;;;;;;27.17;26.20;;;20.70;99.90;;;;;;5028974;28;20201;-63
2023/09/10 02:48:42;;;;;;;28.30;27.30;;;20.70;99.90;;;;;;5026614;28;20240;-63
2023/09/10 02:51:08;;;;;;;30.77;29.65;;;20.70;99.90;;;;;;5031967;28;20312;-63
2023/09/10 02:53:35;;;;;;;32.50;31.30;;;20.70;99.90;;;;;;5045485;28;20239;-63
2023/09/10 02:56:03;;;;;;;29.70;28.60;;;20.70;99.90;;;;;;5031536;28;20201;-63
2023/09/10 02:58:30;;;;;;;35.75;34.45;;;20.70;99.90;;;;;;5018839;28;20288;-64
2023/09/10 03:01:03;;;;;;;35.50;34.20;;;20.70;99.90;;;;;;5014806;28;20601;-63
2023/09/10 03:03:30;;;;;;;34.45;33.25;;;20.70;99.90;;;;;;5014188;28;20209;-63
2023/09/10 03:05:58;;;;;;;34.67;33.38;;;20.70;99.90;;;;;;5014190;28;20659;-63
2023/09/10 03:08:25;;;;;;;30.60;29.50;;;20.70;99.90;;;;;;5014557;28;20201;-62
2023/09/10 03:10:51;;;;;;;33.70;32.50;;;20.70;99.90;;;;;;5013464;28;20221;-64
2023/09/10 03:13:18;;;;;;;26.13;25.13;;;20.60;99.90;;;;;;5031195;28;20304;-63
2023/09/10 03:15:48;;;;;;;35.88;34.58;;;20.60;99.90;;;;;;5013842;28;20209;-63
2023/09/10 03:18:14;;;;;;;30.60;29.50;;;20.50;99.90;;;;;;5014464;28;20201;-62
2023/09/10 03:20:42;;;;;;;31.45;30.33;;;20.50;99.90;;;;;;5013775;28;20717;-63
2023/09/10 03:23:10;;;;;;;35.65;34.38;;;20.50;99.90;;;;;;5013248;28;20197;-63
2023/09/10 03:25:37;;;;;;;35.88;34.58;;;20.50;99.90;;;;;;5012715;28;20289;-64
2023/09/10 03:28:05;;;;;;;35.72;34.45;;;20.50;99.90;;;;;;5012287;28;20213;-64
2023/09/10 03:30:32;;;;;;;31.08;29.88;;;20.50;99.90;;;;;;5012524;28;20239;-64
2023/09/10 03:32:58;;;;;;;32.38;31.23;;;20.60;99.90;;;;;;5012683;28;20293;-63
2023/09/10 03:35:25;;;;;;;39.17;37.78;;;20.50;99.90;;;;;;5012588;28;20204;-63
2023/09/10 03:37:52;;;;;;;32.55;31.35;;;20.50;99.90;;;;;;5013083;28;20205;-64
2023/09/10 03:40:20;;;;;;;27.75;26.77;;;20.50;99.90;;;;;;5020348;28;20699;-64
2023/09/10 03:42:48;;;;;;;34.33;33.10;;;20.50;99.90;;;;;;5012652;28;20206;-65
2023/09/10 03:45:15;;;;;;;28.73;27.70;;;20.50;99.90;;;;;;5012227;28;20292;-65
2023/09/10 03:47:42;;;;;;;32.20;31.05;;;20.40;99.90;;;;;;5012093;28;20197;-63
2023/09/10 03:50:11;;;;;;;30.05;28.95;;;20.30;99.90;;;;;;5012009;28;20212;-63
2023/09/10 03:52:37;;;;;;;28.15;27.17;;;20.30;99.90;;;;;;5011908;28;20220;-65
2023/09/10 03:55:05;;;;;;;31.70;30.50;;;20.30;99.90;;;;;;5012018;28;20211;-64
2023/09/10 03:57:33;;;;;;;36.53;35.13;;;20.40;99.90;;;;;;5012154;28;20201;-64
2023/09/10 04:00:00;;;;;;;30.42;29.33;;;20.30;99.90;;;;;;5012324;28;20220;-64
2023/09/10 04:02:28;;;;;;;36.80;35.33;;;20.30;99.90;;;;;;5011890;28;20194;-64
2023/09/10 04:04:55;;;;;;;31.42;30.27;;;20.30;99.90;;;;;;5012270;28;20586;-64
2023/09/10 04:07:23;;;;;;;31.45;30.33;;;20.30;99.90;;;;;;5024108;28;20225;-64
2023/09/10 04:09:50;;;;;;;33.15;31.80;;;20.20;99.90;;;;;;5031692;28;20741;-63
2023/09/10 04:12:17;;;;;;;32.50;31.35;;;20.20;99.90;;;;;;5031315;28;20308;-63
2023/09/10 04:14:45;;;;;;;30.03;28.93;;;20.20;99.90;;;;;;5023536;28;20196;-65
2023/09/10 04:17:16;;;;;;;27.17;26.15;;;20.20;99.90;;;;;;5031502;28;20204;-65
2023/09/10 04:19:42;;;;;;;31.98;30.70;;;20.20;99.90;;;;;;5031356;28;20549;-64
2023/09/10 04:22:09;;;;;;;28.90;27.80;;;20.10;99.90;;;;;;5031817;28;20220;-65
2023/09/10 04:24:37;;;;;;;37.13;35.67;;;20.10;99.90;;;;;;5031540;28;20200;-64
2023/09/10 04:27:04;;;;;;;37.70;36.35;;;20.00;99.90;;;;;;5030481;28;20679;-64
2023/09/10 04:29:31;;;;;;;30.10;29.00;;;20.10;99.90;;;;;;5024707;28;20682;-64
2023/09/10 04:31:59;;;;;;;32.05;30.88;;;20.10;99.90;;;;;;5031157;28;20584;-65
2023/09/10 04:34:26;;;;;;;25.73;24.83;;;20.00;99.90;;;;;;5023611;28;20211;-64
2023/09/10 04:36:53;;;;;;;29.63;28.58;;;19.80;99.90;;;;;;5031777;28;20205;-63
2023/09/10 04:39:20;;;;;;;30.85;29.73;;;19.80;99.90;;;;;;5011004;28;20219;-63
2023/09/10 04:41:46;;;;;;;25.57;24.67;;;19.70;99.90;;;;;;5011644;28;20229;-64
2023/09/10 04:44:13;;;;;;;27.77;26.75;;;19.70;99.90;;;;;;5011318;28;20209;-64
2023/09/10 04:46:40;;;;;;;27.85;26.85;;;19.60;99.90;;;;;;5011555;28;20508;-64
2023/09/10 04:49:08;;;;;;;28.10;27.10;;;19.60;99.90;;;;;;5011458;28;20335;-64
2023/09/10 04:51:35;;;;;;;32.78;31.52;;;19.70;99.90;;;;;;5011238;28;20711;-63
2023/09/10 04:54:02;;;;;;;30.73;29.63;;;19.70;99.90;;;;;;5011400;28;20209;-64
2023/09/10 04:56:29;;;;;;;28.58;27.58;;;19.70;99.90;;;;;;5011685;28;20220;-64
2023/09/10 04:58:55;;;;;;;31.35;30.25;;;19.70;99.90;;;;;;5011336;28;20211;-63
2023/09/10 05:01:22;;;;;;;27.67;26.67;;;19.70;99.90;;;;;;5011197;28;20224;-64
2023/09/10 05:03:49;;;;;;;29.73;28.70;;;19.70;99.90;;;;;;5011119;28;20209;-64
2023/09/10 05:06:19;;;;;;;31.40;30.23;;;19.70;99.90;;;;;;5011369;28;20693;-65
2023/09/10 05:08:46;;;;;;;31.65;30.52;;;19.70;99.90;;;;;;5011522;28;20209;-65
2023/09/10 05:11:14;;;;;;;34.25;32.95;;;19.60;99.90;;;;;;5011420;28;20225;-65
2023/09/10 05:13:41;;;;;;;30.55;29.45;;;19.60;99.90;;;;;;5010953;28;20229;-66
2023/09/10 05:16:08;;;;;;;31.00;29.90;;;19.50;99.90;;;;;;5011092;28;20206;-62
2023/09/10 05:18:34;;;;;;;30.50;29.25;;;19.50;99.90;;;;;;5011345;28;20224;-64
2023/09/10 05:21:01;;;;;;;30.83;29.60;;;19.50;99.90;;;;;;5011350;28;20233;-65
2023/09/10 05:23:30;;;;;;;30.45;29.35;;;19.50;99.90;;;;;;5011064;28;20304;-63
2023/09/10 05:25:57;;;;;;;32.00;30.88;;;19.50;99.90;;;;;;5011082;28;20209;-64
2023/09/10 05:28:23;;;;;;;29.67;28.55;;;19.50;99.90;;;;;;5022918;28;20197;-65
2023/09/10 05:30:50;;;;;;;27.42;26.38;;;19.50;99.90;;;;;;5030597;28;20236;-65
2023/09/10 05:33:17;;;;;;;33.20;32.00;;;19.50;99.90;;;;;;5030427;28;20316;-66
2023/09/10 05:35:44;;;;;;;32.93;31.73;;;19.50;99.90;;;;;;5030968;28;20665;-64
2023/09/10 05:38:11;;;;;;;32.30;31.15;;;19.50;99.90;;;;;;5014552;28;20209;-65
2023/09/10 05:40:39;;;;;;;28.83;27.83;;;19.40;99.90;;;;;;5030456;28;20309;-63
2023/09/10 05:43:06;;;;;;;34.55;33.33;;;19.40;99.90;;;;;;5030009;28;20204;-62
2023/09/10 05:45:34;;;;;;;32.73;31.57;;;19.50;99.90;;;;;;5030283;28;20651;-63
2023/09/10 05:48:01;;;;;;;35.85;34.55;;;19.50;99.90;;;;;;5030092;28;20212;-66
2023/09/10 05:50:28;;;;;;;30.65;29.55;;;19.60;99.90;;;;;;5029849;28;20706;-63
2023/09/10 05:52:56;;;;;;;31.38;30.25;;;19.70;99.90;;;;;;5033393;28;20232;-63
2023/09/10 05:55:24;;;;;;;33.33;32.13;;;19.70;99.90;;;;;;5033623;28;20292;-63
2023/09/10 05:57:53;;;;;;;33.33;32.03;;;19.70;99.90;;;;;;5033869;28;20201;-64
2023/09/10 06:00:20;;;;;;;31.48;30.38;;;19.80;99.90;;;;;;5033473;28;20235;-63
2023/09/10 06:02:48;;;;;;;35.35;34.10;;;19.90;99.90;;;;;;5026901;28;20201;-62
2023/09/10 06:05:16;;;;;;;33.15;31.92;;;20.00;99.90;;;;;;5013797;28;20220;-63
2023/09/10 06:07:42;;;;;;;35.95;34.65;;;20.00;99.90;;;;;;5021876;28;20663;-63
2023/09/10 06:10:10;;;;;;;33.05;31.88;;;20.10;99.90;;;;;;5033012;28;20291;-63
2023/09/10 06:12:37;;;;;;;33.77;32.47;;;20.10;99.90;;;;;;5033136;28;20216;-64
2023/09/10 06:15:07;;;;;;;35.78;34.50;;;20.30;99.90;;;;;;5033291;28;20675;-64
2023/09/10 06:17:34;;;;;;;33.92;32.67;;;20.30;99.90;;;;;;5032865;28;20203;-65
2023/09/10 06:20:02;;;;;;;34.20;33.00;;;20.40;99.90;;;;;;5033207;28;20212;-61
2023/09/10 06:22:29;;;;;;;32.60;31.43;;;20.50;99.90;;;;;;5032530;28;20200;-65
2023/09/10 06:24:56;;;;;;;42.28;40.75;;;20.50;99.90;;;;;;5025317;28;20664;-64
2023/09/10 06:27:22;;;;;;;34.95;33.72;;;20.50;99.90;;;;;;5024240;28;20651;-64
2023/09/10 06:29:50;;;;;;;34.83;33.58;;;20.70;99.90;;;;;;5018260;28;20211;-63
2023/09/10 06:32:18;;;;;;;39.70;38.30;;;20.70;99.90;;;;;;5020385;28;20220;-64
2023/09/10 06:34:45;;;;;;;37.40;36.07;;;20.80;99.90;;;;;;5013057;28;20201;-62
2023/09/10 06:37:12;;;;;;;27.30;26.35;;;20.90;99.90;;;;;;5013269;28;20220;-63
2023/09/10 06:39:39;;;;;;;28.05;27.05;;;21.10;99.90;;;;;;5013027;28;20197;-65
2023/09/10 06:42:06;;;;;;;21.52;20.77;;;21.20;99.90;;;;;;5026768;28;20710;-64
2023/09/10 06:44:33;;;;;;;16.47;15.87;;;21.30;99.90;;;;;;5032225;28;20200;-64
2023/09/10 06:47:00;;;;;;;20.00;19.23;;;21.40;99.90;;;;;;5025098;28;20609;-63
2023/09/10 06:49:28;;;;;;;21.77;20.92;;;21.40;99.90;;;;;;5012764;28;20197;-63
2023/09/10 06:51:56;;;;;;;20.45;19.73;;;21.40;99.90;;;;;;5023434;28;20250;-63
2023/09/10 06:54:23;;;;;;;18.98;18.25;;;21.50;99.90;;;;;;5028878;28;20235;-64
2023/09/10 06:56:50;;;;;;;18.73;18.08;;;21.60;99.90;;;;;;5012724;28;20602;-64
2023/09/10 06:59:17;;;;;;;16.95;16.35;;;21.70;99.90;;;;;;5012521;28;20223;-63
2023/09/10 07:01:44;;;;;;;16.90;16.30;;;21.70;99.90;;;;;;5017771;28;20228;-66
2023/09/10 07:04:19;;;;;;;17.13;16.52;;;21.80;99.90;;;;;;5011268;28;20197;-65
2023/09/10 07:06:48;;;;;;;17.02;16.42;;;22.00;99.90;;;;;;5026117;28;20291;-62
2023/09/10 07:09:15;;;;;;;17.45;16.83;;;22.10;99.90;;;;;;5031689;28;20215;-65
2023/09/10 07:11:42;;;;;;;18.45;17.75;;;22.20;99.90;;;;;;5023866;28;20229;-65
2023/09/10 07:14:09;;;;;;;17.77;17.17;;;22.20;99.90;;;;;;5012261;28;20312;-64
2023/09/10 07:16:36;;;;;;;18.25;17.55;;;22.20;99.90;;;;;;5012913;28;20554;-64
2023/09/10 07:19:03;;;;;;;19.00;18.20;;;22.30;99.90;;;;;;5012812;28;20209;-64
2023/09/10 07:21:30;;;;;;;18.63;17.92;;;22.40;99.90;;;;;;5015772;28;20228;-62
2023/09/10 07:23:58;;;;;;;19.55;18.75;;;22.50;99.90;;;;;;5013166;28;20201;-63
2023/09/10 07:26:25;;;;;;;18.35;17.65;;;22.50;99.90;;;;;;5012699;28;20213;-63
2023/09/10 07:28:51;;;;;;;18.48;17.77;;;22.60;99.90;;;;;;5012184;28;20554;-64
2023/09/10 07:31:18;;;;;;;20.25;19.45;;;22.70;99.90;;;;;;5012575;28;20237;-65
2023/09/10 07:33:45;;;;;;;19.63;18.92;;;22.80;99.90;;;;;;5011952;28;20794;-66
2023/09/10 07:36:12;;;;;;;20.77;20.00;;;22.90;99.90;;;;;;5016759;28;20300;-63
2023/09/10 07:38:39;;;;;;;21.85;21.05;;;23.00;99.90;;;;;;5020111;28;20204;-67
2023/09/10 07:41:07;;;;;;;22.30;21.50;;;23.00;99.90;;;;;;5026386;28;20226;-62
2023/09/10 07:43:33;;;;;;;22.13;21.30;;;23.00;99.90;;;;;;5013391;28;20197;-64
2023/09/10 07:46:00;;;;;;;20.42;19.63;;;23.10;99.90;;;;;;5012161;28;20684;-64
2023/09/10 07:48:27;;;;;;;23.08;22.27;;;23.30;99.90;;;;;;5011532;28;20297;-64
2023/09/10 07:50:55;;;;;;;25.02;24.13;;;23.50;99.90;;;;;;5011693;28;20241;-63
2023/09/10 07:53:22;;;;;;;24.92;24.02;;;23.60;99.90;;;;;;5011126;28;20225;-65
2023/09/10 07:55:49;;;;;;;23.95;23.13;;;23.80;99.90;;;;;;5011240;28;20205;-64
2023/09/10 07:58:18;;;;;;;23.27;22.48;;;23.90;99.90;;;;;;5018687;28;20224;-63
2023/09/10 08:00:44;;;;;;;23.15;22.27;;;23.90;99.90;;;;;;5022639;28;20221;-63
2023/09/10 08:03:13;;;;;;;21.60;20.80;;;24.10;99.90;;;;;;5023639;28;20194;-63
2023/09/10 08:05:39;;;;;;;22.65;21.85;;;24.20;99.90;;;;;;5023272;28;20209;-62
2023/09/10 08:08:07;;;;;;;21.85;21.05;;;24.20;99.90;;;;;;5022906;28;20644;-63
2023/09/10 08:10:35;;;;;;;22.67;21.88;;;24.40;99.90;;;;;;5022722;28;20236;-62
2023/09/10 08:13:04;;;;;;;23.83;22.92;;;24.40;99.90;;;;;;5024099;28;20699;-62
2023/09/10 08:15:32;;;;;;;23.92;23.08;;;24.50;99.90;;;;;;5024026;28;20671;-62
2023/09/10 08:18:00;;;;;;;24.17;23.27;;;24.70;99.90;;;;;;5025309;28;20312;-63
2023/09/10 08:20:27;;;;;;;24.73;23.83;;;24.80;99.90;;;;;;5022982;28;20619;-62
2023/09/10 08:22:53;;;;;;;25.60;24.70;;;24.90;99.90;;;;;;5024847;28;20659;-64
2023/09/10 08:25:20;;;;;;;27.85;26.75;;;25.00;99.90;;;;;;5022415;28;20251;-65
2023/09/10 08:27:48;;;;;;;28.63;27.52;;;25.00;99.90;;;;;;5014591;28;20292;-63
2023/09/10 08:30:15;;;;;;;29.63;28.52;;;25.20;99.90;;;;;;5022419;28;20223;-63
2023/09/10 08:32:45;;;;;;;27.85;26.85;;;25.20;99.90;;;;;;5030527;28;20207;-63
2023/09/10 08:35:13;;;;;;;29.88;28.80;;;25.30;99.90;;;;;;5022768;28;20220;-63
2023/09/10 08:37:39;;;;;;;30.10;29.00;;;25.40;99.90;;;;;;5030916;28;20211;-62
2023/09/10 08:40:08;;;;;;;25.15;24.23;;;25.50;99.90;;;;;;5030331;28;20211;-63
2023/09/10 08:42:45;;;;;;;24.45;23.42;;;25.70;99.90;;;;;;5030548;28;20932;-62
2023/09/10 08:45:12;;;;;;;23.83;22.92;;;25.80;99.90;;;;;;5030344;28;20576;-62
2023/09/10 08:47:40;;;;;;;29.00;27.98;;;25.80;99.90;;;;;;5024873;28;20723;-62
2023/09/10 08:50:11;;;;;;;19.20;18.45;;;25.90;99.90;;;;;;5023689;28;20290;-62
2023/09/10 08:52:39;;;;;;;17.77;17.13;;;26.00;99.90;;;;;;5025109;28;20223;-62
2023/09/10 08:55:07;;;;;;;22.23;21.42;;;26.00;99.90;;;;;;5026601;28;20572;-62
2023/09/10 08:57:37;;;;;;;20.30;19.52;;;26.10;99.90;;;;;;5026164;28;20212;-64
2023/09/10 09:00:06;;;;;;;18.50;17.80;;;26.10;99.90;;;;;;5023776;28;20499;-63
2023/09/10 09:02:33;;;;;;;20.58;19.77;;;26.30;99.90;;;;;;5022093;28;20216;-62
2023/09/10 09:05:00;;;;;;;17.33;16.67;;;26.40;99.90;;;;;;5025411;28;20197;-62
2023/09/10 09:07:34;;;;;;;19.95;19.25;;;26.50;99.90;;;;;;5024413;28;20201;-63
2023/09/10 09:10:05;;;;;;;19.83;19.13;;;26.60;99.90;;;;;;5024206;28;20199;-63
2023/09/10 09:12:35;;;;;;;19.45;18.75;;;26.70;99.90;;;;;;5025594;28;20197;-64
2023/09/10 09:15:03;;;;;;;19.35;18.55;;;26.60;99.90;;;;;;5028327;28;20320;-63
2023/09/10 09:17:30;;;;;;;18.00;17.35;;;26.70;99.90;;;;;;5023227;28;20208;-63
2023/09/10 09:20:00;;;;;;;18.27;17.58;;;26.80;99.90;;;;;;5024925;28;20359;-63
2023/09/10 09:22:31;;;;;;;19.73;19.02;;;27.10;99.90;;;;;;5023960;28;20204;-62
2023/09/10 09:24:58;;;;;;;19.42;18.73;;;27.30;99.90;;;;;;5011802;28;20922;-62
2023/09/10 09:27:26;;;;;;;18.92;18.15;;;27.30;99.90;;;;;;5014504;28;20205;-62
2023/09/10 09:29:53;;;;;;;17.58;16.88;;;27.50;99.90;;;;;;5014805;28;20224;-62
2023/09/10 09:32:21;;;;;;;21.58;20.77;;;27.50;99.90;;;;;;5023913;28;20282;-62
2023/09/10 09:34:47;;;;;;;19.80;19.05;;;27.40;99.90;;;;;;5057573;22;20225;-66
2023/09/10 09:37:19;;;;;;;19.83;19.13;;;27.60;99.90;;;;;;5081558;28;20225;-66
2023/09/10 09:39:51;;;;;;;20.20;19.50;;;27.70;99.90;;;;;;5074300;28;20248;-66
2023/09/10 09:42:18;;;;;;;20.88;19.98;;;27.80;99.90;;;;;;5073736;28;20207;-66
2023/09/10 09:44:45;;;;;;;19.58;18.88;;;27.80;99.90;;;;;;5073788;28;20740;-66
2023/09/10 09:47:13;;;;;;;20.90;20.10;;;28.00;99.90;;;;;;5073963;28;20214;-66
2023/09/10 09:49:45;;;;;;;22.13;21.33;;;28.20;99.90;;;;;;5075099;28;20669;-66
2023/09/10 09:52:12;;;;;;;23.10;22.20;;;28.20;99.90;;;;;;5074520;28;20203;-66
2023/09/10 09:54:39;;;;;;;23.65;22.75;;;28.30;99.90;;;;;;5073595;28;20215;-66
2023/09/10 09:57:08;;;;;;;23.27;22.33;;;28.40;99.90;;;;;;5074133;28;20238;-65
2023/09/10 09:59:35;;;;;;;23.15;22.25;;;28.50;99.90;;;;;;5073676;28;20495;-66
2023/09/10 10:02:02;;;;;;;22.27;21.35;;;28.60;99.90;;;;;;5073625;28;20206;-65
2023/09/10 10:04:32;;;;;;;21.20;20.40;;;28.40;99.90;;;;;;5073467;28;20616;-66
2023/09/10 10:06:59;;;;;;;22.20;21.30;;;28.20;99.90;;;;;;5074005;28;20234;-64
2023/09/10 10:09:34;;;;;;;23.60;22.70;;;28.40;99.90;;;;;;5074322;28;20214;-66
2023/09/10 10:12:02;;;;;;;22.08;21.17;;;28.30;99.90;;;;;;5073709;28;20508;-66
2023/09/10 10:14:32;;;;;;;40.90;39.15;;;28.30;99.90;;;;;;5073421;28;20233;-65
2023/09/10 10:17:01;;;;;;;24.58;23.67;;;28.50;99.90;;;;;;5073651;28;20227;-66
2023/09/10 10:19:29;;;;;;;21.77;20.98;;;28.50;99.90;;;;;;5073498;28;20214;-65
2023/09/10 10:21:56;;;;;;;22.02;21.23;;;28.60;99.90;;;;;;5073745;28;20206;-65
2023/09/10 10:24:23;;;;;;;22.60;21.70;;;28.70;99.90;;;;;;5073458;28;20672;-66
2023/09/10 10:26:51;;;;;;;22.95;21.90;;;28.70;99.90;;;;;;5073166;28;20227;-66
2023/09/10 10:29:19;;;;;;;21.15;20.35;;;28.90;99.90;;;;;;5073537;28;20256;-66
2023/09/10 10:31:52;;;;;;;21.25;20.45;;;29.00;99.90;;;;;;5073011;28;20228;-66
2023/09/10 10:34:23;;;;;;;21.52;20.73;;;28.90;99.90;;;;;;5073229;28;20223;-66
2023/09/10 10:37:01;;;;;;;21.08;20.27;;;28.90;99.90;;;;;;5081651;28;20241;-66
2023/09/10 10:39:38;;;;;;;23.45;22.58;;;29.00;99.90;;;;;;5072821;28;20199;-66
2023/09/10 10:42:08;;;;;;;21.63;20.83;;;29.10;99.90;;;;;;5073436;28;20677;-65
2023/09/10 10:44:36;;;;;;;22.35;21.52;;;29.20;99.90;;;;;;5073203;28;20203;-66
2023/09/10 10:47:12;;;;;;;24.23;23.33;;;29.20;99.90;;;;;;5079617;28;20272;-66
2023/09/10 10:49:43;;;;;;;23.33;22.52;;;29.30;99.90;;;;;;5082084;28;20207;-66
2023/09/10 10:52:11;;;;;;;20.60;19.80;;;29.30;99.90;;;;;;5074018;28;20214;-65
2023/09/10 10:54:41;;;;;;;26.40;25.50;;;29.40;99.90;;;;;;5072756;28;20234;-65
2023/09/10 10:57:09;;;;;;;25.10;24.10;;;29.40;99.90;;;;;;5073766;28;20229;-66
2023/09/10 10:59:36;;;;;;;21.83;21.02;;;29.50;99.90;;;;;;5073525;28;20231;-66
2023/09/10 11:02:15;;;;;;;23.98;23.08;;;29.60;99.90;;;;;;5073758;28;20278;-66
2023/09/10 11:04:55;;;;;;;23.08;22.17;;;29.70;99.90;;;;;;5074472;28;20234;-65
2023/09/10 11:07:22;;;;;;;20.73;19.92;;;29.70;99.90;;;;;;5073334;28;20214;-65
2023/09/10 11:09:49;;;;;;;26.27;25.23;;;29.70;99.90;;;;;;5072557;28;20203;-65
2023/09/10 11:12:16;;;;;;;21.38;20.50;;;29.70;99.90;;;;;;5080383;28;20660;-62
2023/09/10 11:15:10;;;;;;;21.45;20.65;;;29.80;99.90;;;;;;5072345;28;20219;-66
2023/09/10 11:17:38;;;;;;;22.00;21.17;;;30.00;99.90;;;;;;5072443;28;20203;-65
2023/09/10 11:20:06;;;;;;;21.80;20.95;;;30.10;99.90;;;;;;5072627;28;20305;-66
2023/09/10 11:23:05;;;;;;;25.58;24.55;;;30.00;99.90;;;;;;5071900;28;20203;-64
2023/09/10 11:25:32;;;;;;;29.35;28.25;;;30.00;99.90;;;;;;5074346;28;20222;-65
2023/09/10 11:27:59;;;;;;;26.27;25.27;;;29.80;99.90;;;;;;5077961;28;20210;-67
2023/09/10 11:30:26;;;;;;;30.90;29.65;;;29.80;99.90;;;;;;5072275;28;20203;-66
2023/09/10 11:33:28;;;;;;;26.95;25.92;;;30.00;99.90;;;;;;5072060;28;20199;-65
2023/09/10 11:35:59;;;;;;;36.17;34.83;;;30.20;99.90;;;;;;5072194;28;20239;-64
2023/09/10 11:38:29;;;;;;;30.65;29.55;;;30.30;99.90;;;;;;5074025;28;20621;-66
2023/09/10 11:40:58;;;;;;;34.75;33.45;;;30.40;99.90;;;;;;5073545;28;20695;-65
2023/09/10 11:43:26;;;;;;;44.53;42.88;;;30.40;99.90;;;;;;5071977;28;20207;-64
2023/09/10 11:45:54;;;;;;;51.45;49.60;;;30.40;99.90;;;;;;5072069;28;20868;-65
2023/09/10 11:48:22;;;;;;;37.95;36.55;;;30.40;99.90;;;;;;5071715;28;20199;-65
2023/09/10 11:50:51;;;;;;;40.80;39.22;;;30.40;99.90;;;;;;5071832;28;20233;-65
2023/09/10 11:53:19;;;;;;;30.65;29.55;;;30.40;99.90;;;;;;5071401;28;20207;-65
2023/09/10 11:55:47;;;;;;;49.60;47.80;;;30.50;99.90;;;;;;5071703;28;20230;-68
2023/09/10 11:58:14;;;;;;;85.63;82.38;;;30.70;99.90;;;;;;5071864;28;20691;-65
2023/09/10 12:00:44;;;;;;;80.70;77.55;;;30.70;99.90;;;;;;5071892;28;20199;-65
2023/09/10 12:03:11;;;;;;;76.80;74.03;;;30.70;99.90;;;;;;5071872;28;20210;-67
2023/09/10 12:05:41;;;;;;;93.75;90.43;;;30.70;99.90;;;;;;5072044;28;20227;-63
2023/09/10 12:08:08;;;;;;;44.80;43.13;;;30.80;99.90;;;;;;5075536;28;20680;-65
2023/09/10 12:10:36;;;;;;;71.32;68.72;;;30.80;99.90;;;;;;5084585;28;20199;-67
2023/09/10 12:13:03;;;;;;;92.07;88.80;;;30.80;99.90;;;;;;5081163;28;20282;-66
2023/09/10 12:15:33;;;;;;;80.53;77.63;;;30.80;99.90;;;;;;5081144;28;20231;-66
2023/09/10 12:18:04;;;;;;;79.65;76.78;;;30.80;99.90;;;;;;5081172;28;20203;-67
2023/09/10 12:20:33;;;;;;;101.43;96.88;;;31.00;99.90;;;;;;5076436;28;20553;-67
2023/09/10 12:23:01;;;;;;;89.40;86.22;;;31.10;99.90;;;;;;5072172;28;20207;-65
2023/09/10 12:25:28;;;;;;;73.25;70.57;;;31.10;99.90;;;;;;5084968;28;20228;-66
2023/09/10 12:27:56;;;;;;;100.65;97.10;;;31.20;99.90;;;;;;5077367;28;20301;-66
2023/09/10 12:30:24;;;;;;;98.45;94.95;;;31.20;99.90;;;;;;5071379;28;20286;-66